Terminal Aerodrome Forecast
Issued by NWS Jackson, MS

Home | Current Version | Previous Version | Text Only | Print | Product List | Glossary On
Versions: 1 2 3 4 5 6 7 8 9 10 11 12
000
FTUS44 KJAN 221141
TAFGWO
TAF
KGWO 221141Z 2212/2312 18017KT P6SM -RA VCTS OVC019CB
     FM221400 20011KT P6SM SHRA VCTS OVC050CB
     FM221800 23011KT P6SM VCSH FEW250
     FM222000 24014KT P6SM SKC=

USA.gov is the U.S. government's official web portal to all federal, state and local government web resources and services.